createdAt,value
2022-08-02T00:00:30.696Z,98685.28
2022-08-02T00:02:57.249Z,98673.81
2022-08-02T00:05:24.271Z,98675.38
2022-08-02T00:07:50.950Z,98676.31
2022-08-02T00:10:17.834Z,98674.59
2022-08-02T00:12:44.422Z,98679.97
2022-08-02T00:15:11.177Z,98669.47
2022-08-02T00:17:43.646Z,98664.63
2022-08-02T00:20:10.731Z,98673.00
2022-08-02T00:22:37.514Z,98671.81
2022-08-02T00:25:05.215Z,98665.97
2022-08-02T00:27:31.920Z,98675.41
2022-08-02T00:29:58.477Z,98666.41
2022-08-02T00:32:25.393Z,98672.47
2022-08-02T00:34:52.038Z,98675.00
2022-08-02T00:37:18.816Z,98676.25
2022-08-02T00:39:45.846Z,98672.88
2022-08-02T00:42:15.230Z,98663.06
2022-08-02T00:44:42.310Z,98663.06
2022-08-02T00:47:08.954Z,98668.38
2022-08-02T00:49:35.440Z,98665.59
2022-08-02T00:52:02.434Z,98670.94
2022-08-02T00:54:29.091Z,98669.78
2022-08-02T00:56:55.698Z,98671.44
2022-08-02T00:59:22.486Z,98674.56
2022-08-02T01:01:55.908Z,98670.31
2022-08-02T01:04:26.810Z,98666.59
2022-08-02T01:06:58.981Z,98661.91
2022-08-02T01:09:25.903Z,98659.88
2022-08-02T01:11:52.705Z,98664.25
2022-08-02T01:14:19.897Z,98662.53
2022-08-02T01:16:50.593Z,98675.94
2022-08-02T01:19:38.448Z,98667.84
2022-08-02T01:22:39.445Z,98669.13
2022-08-02T01:25:34.813Z,98671.09
2022-08-02T01:28:38.600Z,98684.72
2022-08-02T01:31:18.497Z,98678.59
2022-08-02T01:34:04.451Z,98670.50
2022-08-02T01:36:36.328Z,98670.09
2022-08-02T01:39:05.377Z,98673.38
2022-08-02T01:41:34.105Z,98667.44
2022-08-02T01:44:03.002Z,98667.69
2022-08-02T01:46:31.691Z,98676.69
2022-08-02T01:49:01.155Z,98668.78
2022-08-02T01:51:47.957Z,98660.94
2022-08-02T01:54:19.743Z,98675.88
2022-08-02T01:56:48.812Z,98679.13
2022-08-02T01:59:21.208Z,98671.72
2022-08-02T02:01:49.440Z,98686.09
2022-08-02T02:04:17.336Z,98684.25
2022-08-02T02:06:45.415Z,98686.84
2022-08-02T02:09:15.592Z,98686.09
2022-08-02T02:12:06.428Z,98686.72
2022-08-02T02:14:33.591Z,98680.59
2022-08-02T02:17:02.397Z,98679.00
2022-08-02T02:19:30.239Z,98680.72
2022-08-02T02:21:57.331Z,98680.59
2022-08-02T02:24:24.127Z,98678.75
2022-08-02T02:26:52.421Z,98681.22
2022-08-02T02:29:22.133Z,98684.06
2022-08-02T02:31:52.470Z,98688.44
2022-08-02T02:34:27.889Z,98682.31
2022-08-02T02:36:58.305Z,98689.22
2022-08-02T02:39:28.439Z,98690.06
2022-08-02T02:41:58.832Z,98692.31
2022-08-02T02:44:26.439Z,98691.47
2022-08-02T02:46:55.288Z,98694.03
2022-08-02T02:49:23.840Z,98690.06
2022-08-02T02:51:52.084Z,98692.81
2022-08-02T02:54:30.477Z,98696.63
2022-08-02T02:57:03.519Z,98698.50
2022-08-02T02:59:31.033Z,98703.00
2022-08-02T03:01:58.883Z,98700.19
2022-08-02T03:04:35.970Z,98699.28
2022-08-02T03:07:15.535Z,98699.19
2022-08-02T03:09:42.141Z,98707.22
2022-08-02T03:12:09.997Z,98706.34
2022-08-02T03:14:42.875Z,98701.91
2022-08-02T03:17:09.621Z,98705.50
2022-08-02T03:19:36.368Z,98707.22
2022-08-02T03:22:02.899Z,98715.97
2022-08-02T03:24:29.679Z,98710.66
2022-08-02T03:26:56.298Z,98711.88
2022-08-02T03:29:23.101Z,98707.59
2022-08-02T03:31:50.322Z,98712.97
2022-08-02T03:34:17.348Z,98709.53
2022-08-02T03:36:47.926Z,98716.56
2022-08-02T03:39:15.891Z,98712.19
2022-08-02T03:41:43.843Z,98711.25
2022-08-02T03:44:12.282Z,98707.03
2022-08-02T03:46:40.142Z,98702.66
2022-08-02T03:49:08.516Z,98692.28
2022-08-02T03:51:38.931Z,98694.09
2022-08-02T03:54:05.878Z,98688.00
2022-08-02T03:56:32.644Z,98696.84
2022-08-02T03:59:10.961Z,98706.91
2022-08-02T04:01:38.033Z,98708.78
2022-08-02T04:04:05.990Z,98709.69
2022-08-02T04:06:32.918Z,98706.28
2022-08-02T04:08:59.678Z,98717.78
2022-08-02T04:11:32.452Z,98714.44
2022-08-02T04:14:07.743Z,98717.88
2022-08-02T04:16:50.253Z,98714.06
2022-08-02T04:19:26.424Z,98715.84
2022-08-02T04:21:54.928Z,98723.72
2022-08-02T04:24:28.121Z,98719.19
2022-08-02T04:26:57.795Z,98728.66
2022-08-02T04:29:29.054Z,98723.94
2022-08-02T04:31:57.116Z,98721.84
2022-08-02T04:34:23.920Z,98715.47
2022-08-02T04:36:50.662Z,98719.66
2022-08-02T04:39:17.250Z,98722.97
2022-08-02T04:41:48.757Z,98727.19
2022-08-02T04:44:15.502Z,98727.84
2022-08-02T04:46:44.199Z,98732.06
2022-08-02T04:49:11.194Z,98719.50
2022-08-02T04:51:41.484Z,98728.94
2022-08-02T04:54:10.416Z,98737.44
2022-08-02T04:56:40.721Z,98726.31
2022-08-02T04:59:08.276Z,98729.31
2022-08-02T05:01:37.421Z,98734.91
2022-08-02T05:04:04.373Z,98736.00
2022-08-02T05:06:31.758Z,98731.91
2022-08-02T05:08:58.442Z,98735.78
2022-08-02T05:11:36.119Z,98733.94
2022-08-02T05:14:05.005Z,98731.09
2022-08-02T05:16:32.281Z,98747.19
2022-08-02T05:19:02.790Z,98746.63
2022-08-02T05:21:30.071Z,98755.88
2022-08-02T05:23:56.858Z,98749.84
2022-08-02T05:26:23.395Z,98750.78
2022-08-02T05:28:49.903Z,98758.00
2022-08-02T05:31:16.419Z,98750.09
2022-08-02T05:33:43.093Z,98745.16
2022-08-02T05:36:09.836Z,98745.13
2022-08-02T05:38:37.751Z,98748.28
2022-08-02T05:41:08.035Z,98748.63
2022-08-02T05:43:34.779Z,98747.66
2022-08-02T05:46:01.467Z,98747.06
2022-08-02T05:48:32.026Z,98747.09
2022-08-02T05:51:11.224Z,98752.44
2022-08-02T05:53:50.211Z,98755.06
2022-08-02T05:56:25.686Z,98761.91
2022-08-02T05:59:13.954Z,98767.25
2022-08-02T06:01:43.144Z,98769.34
2022-08-02T06:04:15.301Z,98771.47
2022-08-02T06:06:44.735Z,98779.78
2022-08-02T06:09:17.098Z,98781.91
2022-08-02T06:12:01.384Z,98779.97
2022-08-02T06:14:31.798Z,98776.19
2022-08-02T06:16:58.630Z,98767.78
2022-08-02T06:19:26.508Z,98761.25
2022-08-02T06:22:35.712Z,98768.19
2022-08-02T06:24:50.893Z,98775.41
2022-08-02T06:27:18.870Z,98765.28
2022-08-02T06:29:48.968Z,98760.63
2022-08-02T06:32:19.744Z,98767.41
2022-08-02T06:34:46.751Z,98761.06
2022-08-02T06:37:26.864Z,98759.72
2022-08-02T06:40:35.977Z,98751.38
2022-08-02T06:43:21.459Z,98748.50
2022-08-02T06:45:48.180Z,98751.00
2022-08-02T06:48:14.934Z,98757.13
2022-08-02T06:50:44.219Z,98751.09
2022-08-02T06:53:12.054Z,98732.66
2022-08-02T06:55:43.289Z,98738.72
2022-08-02T06:58:11.944Z,98732.91
2022-08-02T07:00:39.089Z,98733.03
2022-08-02T07:03:06.058Z,98730.50
2022-08-02T07:05:32.687Z,98732.28
2022-08-02T07:07:59.401Z,98728.09
2022-08-02T07:10:25.953Z,98731.88
2022-08-02T07:12:52.487Z,98732.63
2022-08-02T07:15:19.261Z,98729.81
2022-08-02T07:17:45.987Z,98725.28
2022-08-02T07:20:13.678Z,98725.44
2022-08-02T07:22:40.959Z,98729.47
2022-08-02T07:25:08.905Z,98721.63
2022-08-02T07:27:35.640Z,98720.31
2022-08-02T07:30:02.169Z,98716.31
2022-08-02T07:32:30.998Z,98719.78
2022-08-02T07:34:59.056Z,98718.91
2022-08-02T07:37:55.692Z,98719.81
2022-08-02T07:40:19.825Z,98706.66
2022-08-02T07:42:49.537Z,98706.22
2022-08-02T07:45:16.129Z,98701.38
2022-08-02T07:47:44.705Z,98704.94
2022-08-02T07:50:12.933Z,98701.06
2022-08-02T07:52:41.428Z,98699.59
2022-08-02T07:55:09.896Z,98696.81
2022-08-02T07:57:38.146Z,98701.44
2022-08-02T08:00:08.454Z,98701.03
2022-08-02T08:02:35.418Z,98696.25
2022-08-02T08:05:02.403Z,98691.41
2022-08-02T08:07:29.105Z,98697.19
2022-08-02T08:09:56.542Z,98696.38
2022-08-02T08:12:23.653Z,98697.09
2022-08-02T08:14:50.544Z,98695.28
2022-08-02T08:17:17.599Z,98689.41
2022-08-02T08:19:52.120Z,98690.81
2022-08-02T08:22:20.185Z,98695.47
2022-08-02T08:24:48.591Z,98696.66
2022-08-02T08:27:16.357Z,98692.47
2022-08-02T08:29:43.550Z,98689.28
2022-08-02T08:32:16.270Z,98681.75
2022-08-02T08:34:48.285Z,98685.69
2022-08-02T08:37:18.319Z,98693.69
2022-08-02T08:39:56.781Z,98686.63
2022-08-02T08:42:28.625Z,98679.34
2022-08-02T08:44:57.239Z,98681.50
2022-08-02T08:47:27.912Z,98676.28
2022-08-02T08:50:04.861Z,98669.66
2022-08-02T08:52:35.914Z,98666.94
2022-08-02T08:55:05.366Z,98659.91
2022-08-02T08:57:35.331Z,98657.59
2022-08-02T09:00:02.218Z,98655.16
2022-08-02T09:02:29.050Z,98647.00
2022-08-02T09:04:56.692Z,98650.81
2022-08-02T09:07:23.700Z,98648.50
2022-08-02T09:09:50.635Z,98646.88
2022-08-02T09:12:19.704Z,98651.78
2022-08-02T09:14:50.331Z,98650.78
2022-08-02T09:17:18.380Z,98646.50
2022-08-02T09:19:46.355Z,98650.97
2022-08-02T09:22:15.483Z,98654.16
2022-08-02T09:24:50.074Z,98654.06
2022-08-02T09:27:19.505Z,98667.31
2022-08-02T09:30:11.482Z,98664.66
2022-08-02T09:32:46.886Z,98662.19
2022-08-02T09:35:15.244Z,98663.66
2022-08-02T09:37:42.806Z,98659.66
2022-08-02T09:40:12.300Z,98658.25
2022-08-02T09:42:58.905Z,98655.78
2022-08-02T09:45:31.222Z,98650.78
2022-08-02T09:47:58.303Z,98665.72
2022-08-02T09:50:24.905Z,98667.06
2022-08-02T09:52:51.537Z,98660.94
2022-08-02T09:55:18.186Z,98659.16
2022-08-02T09:57:51.157Z,98655.53
2022-08-02T10:00:31.566Z,98658.06
2022-08-02T10:03:07.862Z,98649.97
2022-08-02T10:06:06.768Z,98649.38
2022-08-02T10:08:33.993Z,98644.97
2022-08-02T10:11:02.005Z,98642.66
2022-08-02T10:13:34.489Z,98636.09
2022-08-02T10:16:02.725Z,98617.16
2022-08-02T10:18:38.876Z,98626.63
2022-08-02T10:21:12.044Z,98619.53
2022-08-02T10:23:40.618Z,98615.44
2022-08-02T10:26:08.093Z,98618.19
2022-08-02T10:28:35.852Z,98610.72
2022-08-02T10:31:05.554Z,98603.25
2022-08-02T10:33:36.227Z,98601.44
2022-08-02T10:36:07.211Z,98602.06
2022-08-02T10:38:35.519Z,98605.78
2022-08-02T10:41:02.112Z,98602.63
2022-08-02T10:43:31.874Z,98608.88
2022-08-02T10:46:20.451Z,98595.22
2022-08-02T10:49:13.745Z,98603.41
2022-08-02T10:51:52.723Z,98597.31
2022-08-02T10:54:21.225Z,98595.19
2022-08-02T10:56:50.002Z,98594.84
2022-08-02T10:59:28.398Z,98590.53
2022-08-02T11:02:02.452Z,98586.09
2022-08-02T11:04:30.039Z,98591.91
2022-08-02T11:07:17.446Z,98581.53
2022-08-02T11:09:45.705Z,98579.13
2022-08-02T11:12:15.134Z,98570.13
2022-08-02T11:14:44.697Z,98570.13
2022-08-02T11:17:16.532Z,98570.19
2022-08-02T11:20:11.243Z,98569.47
2022-08-02T11:22:39.713Z,98563.59
2022-08-02T11:25:24.544Z,98563.38
2022-08-02T11:27:55.016Z,98554.63
2022-08-02T11:30:26.507Z,98559.91
2022-08-02T11:33:01.045Z,98566.00
2022-08-02T11:35:36.263Z,98569.50
2022-08-02T11:38:18.738Z,98566.75
2022-08-02T11:40:46.709Z,98570.41
2022-08-02T11:43:27.181Z,98564.94
2022-08-02T11:45:55.652Z,98572.09
2022-08-02T11:48:33.557Z,98563.13
2022-08-02T11:51:05.529Z,98558.41
2022-08-02T11:53:41.244Z,98555.56
2022-08-02T11:56:08.079Z,98563.44
2022-08-02T11:58:34.828Z,98558.75
2022-08-02T12:01:01.978Z,98553.94
2022-08-02T12:03:28.749Z,98563.56
2022-08-02T12:06:04.749Z,98555.75
2022-08-02T12:08:36.785Z,98561.53
2022-08-02T12:11:03.904Z,98557.97
2022-08-02T12:13:43.311Z,98553.38
2022-08-02T12:16:30.640Z,98562.00
2022-08-02T12:19:15.919Z,98550.06
2022-08-02T12:21:43.331Z,98548.13
2022-08-02T12:24:11.079Z,98541.56
2022-08-02T12:26:46.160Z,98547.09
2022-08-02T12:29:13.130Z,98542.63
2022-08-02T12:31:56.405Z,98547.53
2022-08-02T12:34:31.782Z,98536.59
2022-08-02T12:37:10.650Z,98543.91
2022-08-02T12:39:46.392Z,98539.25
2022-08-02T12:42:16.160Z,98530.50
2022-08-02T12:44:58.763Z,98525.63
2022-08-02T12:47:35.710Z,98524.19
2022-08-02T12:50:18.627Z,98525.59
2022-08-02T12:52:46.869Z,98529.13
2022-08-02T12:55:25.915Z,98530.75
2022-08-02T12:58:12.571Z,98520.88
2022-08-02T13:00:39.778Z,98515.66
2022-08-02T13:04:07.571Z,98521.22
2022-08-02T13:05:57.642Z,98514.25
2022-08-02T13:08:28.142Z,98511.16
2022-08-02T13:10:54.741Z,98514.47
2022-08-02T13:13:21.396Z,98508.75
2022-08-02T13:15:51.172Z,98507.91
2022-08-02T13:18:18.565Z,98510.03
2022-08-02T13:20:45.861Z,98499.72
2022-08-02T13:23:21.357Z,98513.19
2022-08-02T13:25:52.400Z,98509.66
2022-08-02T13:28:19.964Z,98498.13
2022-08-02T13:30:47.327Z,98495.88
2022-08-02T13:33:14.842Z,98492.88
2022-08-02T13:35:42.374Z,98497.19
2022-08-02T13:38:09.050Z,98491.09
2022-08-02T13:41:04.293Z,98493.59
2022-08-02T13:43:52.069Z,98497.63
2022-08-02T13:46:18.164Z,98494.88
2022-08-02T13:48:56.196Z,98492.72
2022-08-02T13:51:22.786Z,98481.25
2022-08-02T13:53:49.406Z,98484.47
2022-08-02T13:56:17.072Z,98480.72
2022-08-02T13:58:43.622Z,98481.69
2022-08-02T14:01:10.247Z,98482.78
2022-08-02T14:04:05.842Z,98478.88
2022-08-02T14:06:23.381Z,98481.09
2022-08-02T14:08:50.048Z,98474.72
2022-08-02T14:11:16.609Z,98472.31
2022-08-02T14:13:43.234Z,98465.19
2022-08-02T14:16:10.123Z,98466.19
2022-08-02T14:18:37.149Z,98460.97
2022-08-02T14:21:03.958Z,98467.56
2022-08-02T14:23:49.859Z,98474.31
2022-08-02T14:26:27.737Z,98471.81
2022-08-02T14:28:54.709Z,98460.06
2022-08-02T14:31:21.376Z,98465.16
2022-08-02T14:33:47.975Z,98467.66
2022-08-02T14:36:14.740Z,98452.97
2022-08-02T14:38:41.245Z,98448.88
2022-08-02T14:41:08.065Z,98454.66
2022-08-02T14:43:53.171Z,98451.41
2022-08-02T14:46:19.905Z,98457.72
2022-08-02T14:48:48.773Z,98449.00
2022-08-02T14:51:16.963Z,98449.47
2022-08-02T14:53:49.444Z,98455.59
2022-08-02T14:56:29.336Z,98447.38
2022-08-02T14:58:55.983Z,98452.03
2022-08-02T15:01:26.136Z,98449.72
2022-08-02T15:03:53.560Z,98452.59
2022-08-02T15:06:20.463Z,98442.00
2022-08-02T15:08:47.258Z,98444.59
2022-08-02T15:11:14.105Z,98442.50
2022-08-02T15:13:42.251Z,98446.25
2022-08-02T15:16:10.150Z,98445.56
2022-08-02T15:18:36.980Z,98439.75
2022-08-02T15:21:09.721Z,98448.59
2022-08-02T15:23:50.826Z,98441.22
2022-08-02T15:26:18.141Z,98442.16
2022-08-02T15:28:44.819Z,98437.00
2022-08-02T15:31:11.634Z,98435.38
2022-08-02T15:33:50.265Z,98434.28
2022-08-02T15:36:17.248Z,98440.53
2022-08-02T15:38:44.878Z,98436.31
2022-08-02T15:41:11.461Z,98438.16
2022-08-02T15:44:00.163Z,98431.19
2022-08-02T15:46:30.843Z,98438.19
2022-08-02T15:48:58.925Z,98440.28
2022-08-02T15:51:26.727Z,98448.47
2022-08-02T15:53:53.529Z,98444.72
2022-08-02T15:56:22.018Z,98449.88
2022-08-02T15:58:51.786Z,98436.09
2022-08-02T16:01:21.115Z,98442.75
2022-08-02T16:03:47.788Z,98441.34
2022-08-02T16:06:15.679Z,98449.19
2022-08-02T16:08:53.570Z,98441.75
2022-08-02T16:11:22.244Z,98440.16
2022-08-02T16:13:55.106Z,98441.16
2022-08-02T16:16:23.626Z,98439.03
2022-08-02T16:18:50.649Z,98444.84
2022-08-02T16:21:17.470Z,98438.94
2022-08-02T16:24:01.644Z,98438.88
2022-08-02T16:26:31.458Z,98446.44
2022-08-02T16:28:59.545Z,98434.47
2022-08-02T16:31:26.424Z,98440.28
2022-08-02T16:33:56.325Z,98449.38
2022-08-02T16:36:24.037Z,98441.28
2022-08-02T16:38:50.811Z,98439.41
2022-08-02T16:41:17.429Z,98439.03
2022-08-02T16:43:44.154Z,98429.81
2022-08-02T16:46:10.918Z,98429.28
2022-08-02T16:48:37.747Z,98437.09
2022-08-02T16:51:04.829Z,98429.66
2022-08-02T16:53:59.767Z,98428.44
2022-08-02T16:56:27.489Z,98433.78
2022-08-02T16:58:54.420Z,98433.06
2022-08-02T17:01:27.465Z,98432.00
2022-08-02T17:04:08.184Z,98439.44
2022-08-02T17:06:34.875Z,98435.78
2022-08-02T17:09:03.295Z,98429.78
2022-08-02T17:11:30.348Z,98439.75
2022-08-02T17:13:57.857Z,98429.84
2022-08-02T17:16:26.634Z,98439.28
2022-08-02T17:18:54.548Z,98434.72
2022-08-02T17:21:21.718Z,98444.81
2022-08-02T17:24:06.283Z,98445.97
2022-08-02T17:26:36.804Z,98451.53
2022-08-02T17:29:15.986Z,98453.28
2022-08-02T17:32:05.895Z,98453.75
2022-08-02T17:34:32.466Z,98452.19
2022-08-02T17:37:00.220Z,98452.19
2022-08-02T17:39:33.763Z,98452.53
2022-08-02T17:42:00.886Z,98463.44
2022-08-02T17:44:37.232Z,98462.50
2022-08-02T17:47:06.831Z,98459.66
2022-08-02T17:49:33.737Z,98463.03
2022-08-02T17:52:15.275Z,98471.56
2022-08-02T17:54:48.968Z,98473.56
2022-08-02T17:57:18.992Z,98476.53
2022-08-02T18:00:03.574Z,98469.28
2022-08-02T18:02:31.815Z,98473.25
2022-08-02T18:04:58.531Z,98466.25
2022-08-02T18:07:25.515Z,98468.66
2022-08-02T18:10:10.803Z,98465.81
2022-08-02T18:12:39.276Z,98464.41
2022-08-02T18:15:06.798Z,98470.22
2022-08-02T18:17:41.008Z,98470.63
2022-08-02T18:22:58.844Z,98479.28
2022-08-02T18:25:37.240Z,98483.03
2022-08-02T18:28:13.307Z,98482.47
2022-08-02T18:30:41.194Z,98480.19
2022-08-02T18:33:58.683Z,98476.56
2022-08-02T18:35:55.675Z,98473.44
2022-08-02T18:38:23.510Z,98476.94
2022-08-02T18:40:51.080Z,98481.19
2022-08-02T18:43:18.449Z,98476.00
2022-08-02T18:46:05.387Z,98472.25
2022-08-02T18:48:31.857Z,98475.91
2022-08-02T18:50:58.424Z,98481.19
2022-08-02T18:53:39.231Z,98482.69
2022-08-02T18:56:20.459Z,98484.72
2022-08-02T18:58:56.103Z,98487.72
2022-08-02T19:01:32.434Z,98486.06
2022-08-02T19:04:03.040Z,98491.53
2022-08-02T19:06:30.432Z,98495.09
2022-08-02T19:11:50.089Z,98500.16
2022-08-02T19:14:24.416Z,98494.31
2022-08-02T19:16:55.345Z,98491.81
2022-08-02T19:19:22.358Z,98490.34
2022-08-02T19:22:17.673Z,98488.63
2022-08-02T19:24:37.093Z,98495.66
2022-08-02T19:27:13.329Z,98499.47
2022-08-02T19:29:48.708Z,98497.22
2022-08-02T19:32:42.397Z,98493.28
2022-08-02T19:35:19.066Z,98494.47
2022-08-02T19:37:52.556Z,98495.28
2022-08-02T19:40:24.285Z,98496.28
2022-08-02T19:44:23.242Z,98489.88
2022-08-02T19:45:49.999Z,98500.66
2022-08-02T19:48:24.255Z,98502.31
2022-08-02T19:50:56.404Z,98499.97
2022-08-02T19:53:29.158Z,98503.69
2022-08-02T19:56:20.083Z,98506.25
2022-08-02T19:58:48.698Z,98507.88
2022-08-02T20:01:16.908Z,98516.97
2022-08-02T20:03:52.530Z,98512.47
2022-08-02T20:06:20.108Z,98513.84
2022-08-02T20:08:59.345Z,98513.06
2022-08-02T20:11:34.843Z,98510.84
2022-08-02T20:14:04.247Z,98508.56
2022-08-02T20:16:33.018Z,98512.31
2022-08-02T20:19:00.575Z,98509.81
2022-08-02T20:21:34.176Z,98513.03
2022-08-02T20:24:01.325Z,98516.50
2022-08-02T20:26:28.408Z,98509.28
2022-08-02T20:28:54.938Z,98519.06
2022-08-02T20:31:21.519Z,98513.16
2022-08-02T20:33:55.714Z,98513.00
2022-08-02T20:36:23.741Z,98504.88
2022-08-02T20:38:50.322Z,98508.81
2022-08-02T20:41:21.430Z,98507.97
2022-08-02T20:43:48.910Z,98513.03
2022-08-02T20:46:15.684Z,98509.84
2022-08-02T20:48:42.421Z,98507.91
2022-08-02T20:51:12.130Z,98514.34
2022-08-02T20:53:54.870Z,98514.75
2022-08-02T20:56:21.850Z,98513.69
2022-08-02T20:58:51.890Z,98512.19
2022-08-02T21:01:21.123Z,98516.28
2022-08-02T21:03:58.686Z,98517.78
2022-08-02T21:06:28.066Z,98511.91
2022-08-02T21:08:55.424Z,98517.03
2022-08-02T21:11:25.338Z,98507.69
2022-08-02T21:14:07.640Z,98517.88
2022-08-02T21:16:35.802Z,98507.13
2022-08-02T21:19:02.596Z,98513.03
2022-08-02T21:21:30.009Z,98517.41
2022-08-02T21:23:57.282Z,98517.31
2022-08-02T21:26:27.822Z,98508.53
2022-08-02T21:28:57.983Z,98509.81
2022-08-02T21:31:30.072Z,98505.31
2022-08-02T21:34:00.494Z,98515.78
2022-08-02T21:36:34.032Z,98508.84
2022-08-02T21:39:09.181Z,98512.75
2022-08-02T21:41:46.469Z,98517.44
2022-08-02T21:44:16.488Z,98505.25
2022-08-02T21:46:45.411Z,98508.66
2022-08-02T21:49:14.132Z,98506.94
2022-08-02T21:51:43.083Z,98517.44
2022-08-02T21:54:18.198Z,98513.63
2022-08-02T21:56:46.160Z,98507.34
2022-08-02T21:59:16.273Z,98512.94
2022-08-02T22:01:53.044Z,98516.66
2022-08-02T22:04:21.590Z,98514.56
2022-08-02T22:06:49.287Z,98513.31
2022-08-02T22:09:44.451Z,98515.78
2022-08-02T22:12:10.122Z,98508.53
2022-08-02T22:14:39.431Z,98516.66
2022-08-02T22:17:08.745Z,98522.56
2022-08-02T22:19:40.071Z,98516.25
2022-08-02T22:22:19.382Z,98511.69
2022-08-02T22:24:45.916Z,98519.31
2022-08-02T22:27:13.734Z,98519.91
2022-08-02T22:29:40.373Z,98528.19
2022-08-02T22:32:07.416Z,98528.94
2022-08-02T22:34:51.989Z,98537.50
2022-08-02T22:38:15.360Z,98530.75
2022-08-02T22:40:08.936Z,98526.44
2022-08-02T22:42:36.622Z,98523.59
2022-08-02T22:45:07.605Z,98529.84
2022-08-02T22:47:34.229Z,98525.03
2022-08-02T22:50:06.214Z,98530.50
2022-08-02T22:52:38.562Z,98537.00
2022-08-02T22:55:05.557Z,98536.72
2022-08-02T22:57:33.136Z,98526.44
2022-08-02T22:58:43.846Z,98470.91
2022-08-02T22:58:47.003Z,98497.44
2022-08-02T23:00:20.074Z,98533.44
2022-08-02T23:02:46.764Z,98520.66
2022-08-02T23:05:13.667Z,98519.88
2022-08-02T23:07:40.494Z,98527.09
2022-08-02T23:10:08.132Z,98530.63
2022-08-02T23:12:34.836Z,98524.81
2022-08-02T23:15:01.727Z,98520.16
2022-08-02T23:17:47.505Z,98519.06
2022-08-02T23:20:14.180Z,98526.03
2022-08-02T23:22:40.822Z,98528.25
2022-08-02T23:25:08.678Z,98525.00
2022-08-02T23:27:35.527Z,98521.75
2022-08-02T23:30:02.678Z,98529.72
2022-08-02T23:32:30.476Z,98528.78
2022-08-02T23:34:57.704Z,98522.84
2022-08-02T23:37:25.007Z,98524.84
2022-08-02T23:39:52.311Z,98518.78
2022-08-02T23:42:19.222Z,98523.13
2022-08-02T23:44:45.956Z,98524.75
2022-08-02T23:47:12.704Z,98523.97
2022-08-02T23:49:39.425Z,98522.09
2022-08-02T23:52:06.094Z,98526.63
2022-08-02T23:54:32.756Z,98520.66
2022-08-02T23:56:59.536Z,98521.69
2022-08-02T23:59:26.424Z,98514.66
